Time;durP1;ratioP1;P1;durP2;ratioP2;P2;SDS_P1;SDS_P2;PMS_P1;PMS_P2;Temp;Humidity;BMP_temperature;BMP_pressure;BME280_temperature;BME280_humidity;BME280_pressure;Samples;Min_cycle;Max_cycle;Signal;HPM_P1;HPM_P2
2023/09/12 00:01:32;;;;;;;6.80;4.30;;;;;;;21.93;46.45;99554.44;7685619;32;39923;-82
2023/09/12 00:05:56;;;;;;;9.07;4.22;;;;;;;21.99;46.04;99555.78;7685494;32;38110;-82
2023/09/12 00:10:12;;;;;;;13.10;4.50;;;;;;;21.93;46.20;99554.44;7685561;32;37879;-82
2023/09/12 00:14:29;;;;;;;12.40;4.47;;;;;;;21.85;46.34;99558.16;7685675;32;39437;-82
2023/09/12 00:18:45;;;;;;;7.55;4.22;;;;;;;21.94;46.12;99558.81;7685225;32;39627;-78
2023/09/12 00:23:02;;;;;;;11.85;4.65;;;;;;;21.86;46.29;99554.22;7685251;32;38996;-81
2023/09/12 00:27:18;;;;;;;11.00;4.32;;;;;;;21.80;46.35;99552.84;7685353;32;37803;-81
2023/09/12 00:31:34;;;;;;;8.15;4.40;;;;;;;21.52;47.35;99553.66;7685330;32;40004;-80
2023/09/12 00:35:50;;;;;;;10.77;4.82;;;;;;;21.60;47.17;99561.03;7685119;32;40922;-81
2023/09/12 00:40:07;;;;;;;7.85;4.28;;;;;;;21.70;46.77;99554.19;7685019;32;38759;-81
2023/09/12 00:44:23;;;;;;;8.75;4.37;;;;;;;21.43;47.40;99552.97;7683744;32;38154;-82
2023/09/12 00:48:40;;;;;;;9.48;4.55;;;;;;;21.43;47.48;99559.31;7684212;32;40127;-81
2023/09/12 00:52:56;;;;;;;10.48;4.50;;;;;;;21.46;47.40;99560.59;7684940;32;40960;-82
2023/09/12 00:57:13;;;;;;;10.80;4.80;;;;;;;21.42;47.51;99554.94;7683760;32;37707;-82
2023/09/12 01:01:31;;;;;;;8.65;4.65;;;;;;;21.55;47.06;99555.72;7684953;32;37828;-81
2023/09/12 01:05:47;;;;;;;9.45;4.60;;;;;;;21.35;47.59;99563.84;7683553;32;39082;-82
2023/09/12 01:10:07;;;;;;;8.15;4.82;;;;;;;21.35;47.86;99558.31;7683670;32;40784;-82
2023/09/12 01:14:24;;;;;;;6.97;4.18;;;;;;;21.27;48.14;99550.13;7684729;32;38790;-82
2023/09/12 01:18:42;;;;;;;6.18;3.95;;;;;;;21.11;48.41;99553.59;7684403;32;37797;-81
2023/09/12 01:23:21;;;;;;;8.73;4.47;;;;;;;21.09;48.52;99555.09;7684705;32;39817;-81
2023/09/12 01:27:48;;;;;;;10.20;4.82;;;;;;;20.95;48.89;99550.72;7684690;32;40546;-81
2023/09/12 01:32:04;;;;;;;10.13;4.70;;;;;;;21.12;48.37;99554.41;7683050;32;38663;-81
2023/09/12 01:36:21;;;;;;;9.25;4.65;;;;;;;21.12;48.24;99554.41;7684475;32;36938;-81
2023/09/12 01:40:49;;;;;;;9.88;4.60;;;;;;;20.91;48.78;99551.78;7684476;32;39329;-81
2023/09/12 01:45:06;;;;;;;8.02;4.70;;;;;;;21.03;48.50;99549.00;7684144;32;40125;-81
2023/09/12 01:49:25;;;;;;;8.63;4.50;;;;;;;20.99;48.95;99557.19;7683114;32;37543;-81
2023/09/12 01:53:43;;;;;;;9.27;4.68;;;;;;;20.98;48.84;99560.31;7683038;32;36016;-81
2023/09/12 01:57:59;;;;;;;9.45;5.20;;;;;;;21.09;48.61;99558.66;7682847;32;39061;-80
2023/09/12 02:02:18;;;;;;;9.63;4.53;;;;;;;20.95;48.92;99564.56;7684058;32;40752;-80
2023/09/12 02:06:34;;;;;;;10.23;4.70;;;;;;;21.07;48.72;99560.19;7683872;32;37882;-80
2023/09/12 02:10:51;;;;;;;11.12;4.47;;;;;;;20.97;48.62;99567.81;7683546;32;37048;-82
2023/09/12 02:15:08;;;;;;;11.27;4.80;;;;;;;20.70;49.37;99563.78;7683706;32;39265;-81
2023/09/12 02:19:24;;;;;;;7.97;4.15;;;;;;;20.55;49.93;99559.69;7683615;32;40000;-81
2023/09/12 02:23:41;;;;;;;10.02;4.47;;;;;;;20.63;49.79;99556.03;7683601;32;37690;-81
2023/09/12 02:27:57;;;;;;;9.75;4.82;;;;;;;20.75;49.40;99554.44;7683395;32;36849;-80
2023/09/12 02:32:14;;;;;;;19.35;5.43;;;;;;;20.68;49.77;99552.25;7683416;32;40095;-80
2023/09/12 02:36:31;;;;;;;12.00;4.93;;;;;;;20.65;50.05;99557.66;7683097;32;40737;-81
2023/09/12 02:40:47;;;;;;;9.85;5.35;;;;;;;20.41;50.66;99564.75;7682602;32;37926;-81
2023/09/12 02:45:04;;;;;;;10.23;4.78;;;;;;;20.38;51.73;99562.66;7681850;32;37834;-81
2023/09/12 02:49:20;;;;;;;12.45;5.18;;;;;;;20.33;51.34;99560.13;7682858;32;40264;-81
2023/09/12 02:53:37;;;;;;;11.10;4.22;;;;;;;20.32;51.18;99564.03;7682817;32;40626;-81
2023/09/12 02:57:53;;;;;;;8.80;4.53;;;;;;;20.33;50.92;99558.13;7682587;32;37727;-79
2023/09/12 03:02:09;;;;;;;8.30;5.12;;;;;;;20.38;50.74;99559.87;7682692;32;37029;-80
2023/09/12 03:06:26;;;;;;;10.35;5.12;;;;;;;20.27;51.12;99554.78;7682445;32;39450;-81
2023/09/12 03:10:42;;;;;;;11.93;4.60;;;;;;;20.25;51.60;99557.09;7684623;32;40146;-80
2023/09/12 03:14:58;;;;;;;10.13;4.75;;;;;;;20.17;51.99;99566.31;7685981;32;38599;-80
2023/09/12 03:19:15;;;;;;;11.80;5.03;;;;;;;20.35;51.66;99561.41;7686126;32;37959;-80
2023/09/12 03:23:31;;;;;;;8.55;4.80;;;;;;;20.23;51.81;99559.41;7686147;32;39913;-80
2023/09/12 03:27:47;;;;;;;10.73;5.25;;;;;;;20.19;51.55;99550.16;7686154;32;39888;-81
2023/09/12 03:32:03;;;;;;;11.00;5.10;;;;;;;20.16;51.26;99556.41;7685887;32;38063;-80
2023/09/12 03:36:20;;;;;;;11.18;5.37;;;;;;;19.99;51.77;99562.09;7685612;32;38004;-81
2023/09/12 03:40:37;;;;;;;9.48;5.12;;;;;;;20.17;51.19;99557.19;7685895;32;40228;-81
2023/09/12 03:44:53;;;;;;;10.23;4.95;;;;;;;20.04;51.65;99561.88;7685937;32;39733;-81
2023/09/12 03:49:09;;;;;;;10.00;5.05;;;;;;;20.14;51.30;99563.41;7685445;32;38467;-81
2023/09/12 03:53:27;;;;;;;11.18;5.00;;;;;;;20.06;52.37;99568.69;7685704;32;37162;-81
2023/09/12 03:57:45;;;;;;;9.93;5.07;;;;;;;19.98;53.35;99564.06;7685604;32;38339;-81
2023/09/12 04:02:05;;;;;;;10.18;4.82;;;;;;;20.15;52.57;99562.28;7685785;32;39627;-81
2023/09/12 04:06:22;;;;;;;13.82;5.95;;;;;;;20.09;52.87;99575.50;7683620;32;37963;-81
2023/09/12 04:10:38;;;;;;;10.68;5.35;;;;;;;20.12;52.30;99574.81;7685575;32;37096;-81
2023/09/12 04:14:57;;;;;;;12.25;5.50;;;;;;;20.39;51.42;99569.81;7685326;32;39389;-81
2023/09/12 04:19:16;;;;;;;12.40;5.18;;;;;;;20.13;52.05;99570.91;7685398;32;39969;-81
2023/09/12 04:23:32;;;;;;;13.15;5.60;;;;;;;20.07;52.01;99572.25;7684474;32;37801;-80
2023/09/12 04:27:49;;;;;;;9.23;5.15;;;;;;;19.91;52.47;99574.06;7685405;32;37172;-79
2023/09/12 04:32:06;;;;;;;13.52;5.62;;;;;;;19.97;52.40;99570.75;7685162;32;39241;-79
2023/09/12 04:36:22;;;;;;;16.92;5.50;;;;;;;20.05;52.48;99574.56;7685087;32;39913;-80
2023/09/12 04:40:39;;;;;;;12.85;4.97;;;;;;;20.21;52.33;99572.78;7683908;32;37646;-81
2023/09/12 04:44:55;;;;;;;17.30;5.60;;;;;;;20.09;52.62;99578.25;7676020;32;290154;-82
2023/09/12 04:49:12;;;;;;;9.48;5.32;;;;;;;20.01;53.51;99587.47;7685121;32;40305;-80
2023/09/12 04:53:34;;;;;;;9.70;5.35;;;;;;;19.96;53.73;99596.78;7684987;32;39841;-81
2023/09/12 04:57:50;;;;;;;13.60;5.47;;;;;;;20.15;53.32;99596.28;7684940;32;38691;-81
2023/09/12 05:02:07;;;;;;;12.60;5.37;;;;;;;20.15;53.68;99595.47;7684955;32;37978;-81
2023/09/12 05:06:23;;;;;;;11.95;5.47;;;;;;;20.35;53.13;99591.03;7684894;32;40016;-81
2023/09/12 05:10:39;;;;;;;11.73;5.18;;;;;;;20.30;53.34;99605.91;7684844;32;39999;-80
2023/09/12 05:14:56;;;;;;;11.98;5.37;;;;;;;20.23;53.78;99603.69;7684372;32;37931;-81
2023/09/12 05:19:12;;;;;;;8.70;5.07;;;;;;;19.96;54.81;99609.81;7683840;32;37126;-83
2023/09/12 05:23:28;;;;;;;12.05;5.75;;;;;;;20.14;54.32;99605.72;7684319;32;40005;-70
2023/09/12 05:27:44;;;;;;;15.95;5.60;;;;;;;20.39;53.73;99605.81;7684276;32;40958;-71
2023/09/12 05:32:01;;;;;;;10.25;5.50;;;;;;;20.56;54.03;99605.63;7684190;32;37796;-70
2023/09/12 05:36:18;;;;;;;14.07;5.05;;;;;;;20.72;54.15;99602.22;7683313;32;37988;-68
2023/09/12 05:40:34;;;;;;;12.13;5.62;;;;;;;20.97;53.36;99611.31;7684302;32;39322;-69
2023/09/12 05:44:54;;;;;;;7.95;4.62;;;;;;;21.07;53.55;99612.84;7684307;32;40781;-69
2023/09/12 05:49:10;;;;;;;13.02;5.03;;;;;;;21.17;53.65;99624.25;7684326;32;38591;-69
2023/09/12 05:53:26;;;;;;;14.27;5.03;;;;;;;21.33;53.11;99620.78;7684075;32;37904;-70
2023/09/12 05:57:43;;;;;;;8.65;4.60;;;;;;;21.34;53.52;99623.22;7682029;32;39494;-70
2023/09/12 06:01:59;;;;;;;16.23;4.87;;;;;;;21.37;53.69;99628.06;7684028;32;39636;-70
2023/09/12 06:06:15;;;;;;;20.05;5.12;;;;;;;21.62;52.87;99622.50;7683918;32;37850;-70
2023/09/12 06:10:32;;;;;;;12.23;5.15;;;;;;;21.86;51.29;99631.94;7683768;32;37983;-85
2023/09/12 06:14:48;;;;;;;10.73;5.10;;;;;;;21.97;50.68;99621.94;7683680;32;39324;-83
2023/09/12 06:19:05;;;;;;;9.63;4.82;;;;;;;22.03;51.74;99623.31;7683691;32;40112;-84
2023/09/12 06:23:21;;;;;;;19.20;5.75;;;;;;;22.42;50.38;99620.84;7682963;32;37865;-84
2023/09/12 06:27:37;;;;;;;11.70;5.00;;;;;;;22.36;51.90;99621.47;7683326;32;37092;-84
2023/09/12 06:31:55;;;;;;;13.32;5.20;;;;;;;22.43;50.75;99627.19;7683511;32;39439;-83
2023/09/12 06:36:11;;;;;;;8.75;4.60;;;;;;;22.45;49.52;99631.22;7682976;32;39951;-82
2023/09/12 06:40:28;;;;;;;12.55;5.60;;;;;;;22.69;49.15;99629.47;7675156;32;38006;-83
2023/09/12 06:44:44;;;;;;;11.23;5.78;;;;;;;22.80;48.52;99636.13;7683973;32;37850;-72
2023/09/12 06:49:01;;;;;;;12.13;5.62;;;;;;;22.82;49.95;99627.44;7686439;32;40190;-71
2023/09/12 06:53:17;;;;;;;16.42;6.05;;;;;;;22.50;52.64;99632.94;7686274;32;39974;-69
2023/09/12 06:57:33;;;;;;;10.60;5.55;;;;;;;22.16;53.74;99639.91;7685305;32;38194;-68
2023/09/12 07:01:50;;;;;;;16.37;6.00;;;;;;;22.76;51.79;99632.41;7685109;32;37180;-68
2023/09/12 07:06:06;;;;;;;12.20;5.50;;;;;;;22.72;51.27;99633.53;7685404;32;39475;-69
2023/09/12 07:10:23;;;;;;;12.02;5.60;;;;;;;23.19;50.50;99627.94;7685772;32;40058;-68
2023/09/12 07:14:40;;;;;;;9.23;5.00;;;;;;;23.41;50.09;99628.47;7685961;32;38713;-82
2023/09/12 07:18:57;;;;;;;19.37;5.78;;;;;;;23.23;49.94;99626.09;7685975;32;36823;-82
2023/09/12 07:23:13;;;;;;;13.07;5.15;;;;;;;23.60;49.20;99636.84;7685924;32;39949;-82
2023/09/12 07:27:30;;;;;;;12.95;5.32;;;;;;;23.46;48.50;99638.47;7685994;32;39992;-82
2023/09/12 07:31:46;;;;;;;11.00;5.12;;;;;;;23.65;48.27;99641.31;7685806;32;38775;-84
2023/09/12 07:36:03;;;;;;;10.30;4.95;;;;;;;23.99;46.65;99642.47;7685939;32;37087;-84
2023/09/12 07:40:19;;;;;;;14.38;4.95;;;;;;;24.18;44.54;99635.28;7685749;32;40245;-82
2023/09/12 07:44:36;;;;;;;14.48;6.07;;;;;;;24.41;44.15;99626.19;7685681;32;40092;-83
2023/09/12 07:48:52;;;;;;;9.57;4.68;;;;;;;24.67;44.43;99626.28;7685569;32;38892;-82
2023/09/12 07:53:09;;;;;;;13.85;5.87;;;;;;;24.89;42.61;99618.31;7684373;32;38102;-80
2023/09/12 07:57:25;;;;;;;12.32;5.12;;;;;;;24.64;43.85;99617.88;7685061;32;39810;-83
2023/09/12 08:01:41;;;;;;;14.18;5.43;;;;;;;24.65;45.28;99620.28;7685493;32;39825;-83
2023/09/12 08:05:58;;;;;;;13.65;5.35;;;;;;;25.33;43.08;99614.22;7684626;32;37981;-83
2023/09/12 08:10:14;;;;;;;8.90;4.78;;;;;;;25.66;43.27;99602.31;7685243;32;37066;-82
2023/09/12 08:14:30;;;;;;;10.30;5.00;;;;;;;25.79;42.76;99600.13;7685115;32;40123;-83
2023/09/12 08:18:47;;;;;;;10.27;4.90;;;;;;;26.29;41.48;99600.72;7685472;32;40418;-82
2023/09/12 08:23:03;;;;;;;15.32;4.87;;;;;;;26.37;41.12;99605.19;7685257;32;38463;-84
2023/09/12 08:27:20;;;;;;;13.77;5.43;;;;;;;26.49;41.06;99601.34;7684479;32;38000;-83
2023/09/12 08:31:38;;;;;;;11.40;5.10;;;;;;;26.16;40.67;99605.75;7684849;32;39317;-83
2023/09/12 08:35:55;;;;;;;11.63;4.93;;;;;;;26.29;40.26;99602.72;7684861;32;40880;-83
2023/09/12 08:40:12;;;;;;;11.35;4.65;;;;;;;26.52;40.54;99608.12;7683856;32;37675;-81
2023/09/12 08:44:28;;;;;;;13.13;5.28;;;;;;;26.73;40.89;99599.97;7684884;32;37852;-83
2023/09/12 08:48:45;;;;;;;12.65;4.78;;;;;;;27.58;39.73;99598.19;7684397;32;39300;-84
2023/09/12 08:53:03;;;;;;;13.57;4.85;;;;;;;27.28;39.85;99599.22;7683658;32;40932;-82
2023/09/12 08:57:24;;;;;;;13.10;5.50;;;;;;;27.95;38.91;99597.19;7684827;32;38762;-82
2023/09/12 09:01:42;;;;;;;8.82;4.82;;;;;;;27.96;38.02;99600.78;7697206;32;37166;-83
2023/09/12 09:05:58;;;;;;;12.52;5.10;;;;;;;27.67;38.56;99595.84;7710718;32;40056;-83
2023/09/12 09:10:17;;;;;;;21.12;5.28;;;;;;;28.38;39.16;99590.91;7684214;32;40645;-83
2023/09/12 09:14:39;;;;;;;12.07;5.37;;;;;;;28.56;37.76;99588.13;7683835;32;38687;-82
2023/09/12 09:19:00;;;;;;;13.57;4.62;;;;;;;28.90;37.92;99587.75;7683661;32;37423;-82
2023/09/12 09:23:16;;;;;;;9.10;4.68;;;;;;;29.03;37.66;99577.72;7683603;32;40117;-84
2023/09/12 09:27:35;;;;;;;17.48;4.90;;;;;;;29.15;35.73;99580.13;7684244;32;39969;-84
2023/09/12 09:31:53;;;;;;;14.40;4.68;;;;;;;29.96;34.54;99574.69;7682261;32;37676;-82
2023/09/12 09:36:09;;;;;;;12.60;4.45;;;;;;;29.68;34.63;99566.34;7683719;32;38196;-83
2023/09/12 09:40:26;;;;;;;7.75;3.92;;;;;;;30.41;33.31;99574.06;7682872;32;39441;-69
2023/09/12 09:44:43;;;;;;;9.95;3.95;;;;;;;31.10;32.24;99570.69;7681629;32;40688;-83
2023/09/12 09:48:59;;;;;;;19.23;4.65;;;;;;;31.18;31.82;99564.56;7683531;32;37693;-83
2023/09/12 09:53:15;;;;;;;11.85;4.75;;;;;;;31.52;30.68;99563.03;7682381;32;36461;-83
2023/09/12 09:57:36;;;;;;;9.30;4.20;;;;;;;31.64;30.72;99562.47;7683043;32;39566;-83
2023/09/12 10:01:59;;;;;;;9.18;3.75;;;;;;;31.70;27.69;99568.44;7674994;32;39979;-84
2023/09/12 10:06:19;;;;;;;10.45;3.67;;;;;;;31.74;25.87;99560.75;7683801;32;37626;-83
2023/09/12 10:10:38;;;;;;;12.48;3.85;;;;;;;32.02;24.98;99556.75;7662202;32;37962;-83
2023/09/12 10:14:54;;;;;;;18.60;3.85;;;;;;;33.22;24.57;99557.28;7666934;32;38341;-83
2023/09/12 10:19:26;;;;;;;13.60;3.80;;;;;;;33.63;23.38;99547.59;7681755;32;40110;-81
2023/09/12 10:23:45;;;;;;;10.65;3.70;;;;;;;33.52;22.95;99540.56;7680161;32;37873;-83
2023/09/12 10:28:03;;;;;;;9.60;3.25;;;;;;;33.17;22.93;99546.50;7678120;32;37229;-83
2023/09/12 10:32:21;;;;;;;10.52;3.22;;;;;;;33.56;22.79;99533.59;7681266;32;40153;-81
2023/09/12 10:36:39;;;;;;;11.25;3.65;;;;;;;34.01;21.93;99541.56;7682093;32;39613;-79
2023/09/12 10:40:56;;;;;;;14.30;3.70;;;;;;;34.11;21.98;99536.09;7682457;32;37980;-82
2023/09/12 10:45:13;;;;;;;15.48;3.92;;;;;;;34.41;21.85;99526.53;7681457;32;37997;-81
2023/09/12 10:49:29;;;;;;;9.27;3.75;;;;;;;33.90;21.80;99529.69;7682571;32;39243;-80
2023/09/12 10:53:50;;;;;;;13.05;3.75;;;;;;;33.70;21.75;99526.88;7681637;32;39993;-81
2023/09/12 10:58:10;;;;;;;7.22;3.50;;;;;;;34.05;21.10;99518.84;7680463;32;38706;-80
2023/09/12 11:02:37;;;;;;;7.15;3.58;;;;;;;33.83;21.10;99535.50;7681704;32;37893;-81
2023/09/12 11:06:54;;;;;;;8.63;3.40;;;;;;;33.75;21.10;99528.41;7681094;32;39437;-82
2023/09/12 11:11:22;;;;;;;8.43;3.40;;;;;;;33.98;20.79;99519.00;7681256;32;40042;-84
2023/09/12 11:15:58;;;;;;;9.95;3.67;;;;;;;34.34;20.70;99518.19;7680954;32;38623;-83
2023/09/12 11:20:16;;;;;;;8.68;3.00;;;;;;;34.40;20.02;99511.56;7680284;32;37707;-84
2023/09/12 11:24:43;;;;;;;11.23;3.83;;;;;;;33.53;20.95;99513.91;7681533;32;40219;-85
2023/09/12 11:29:13;;;;;;;17.15;3.90;;;;;;;33.78;21.18;99516.22;7679795;32;40581;-83
2023/09/12 11:33:31;;;;;;;9.80;3.70;;;;;;;34.31;20.75;99505.72;7685866;32;37971;-79
2023/09/12 11:37:50;;;;;;;7.90;3.60;;;;;;;33.78;20.02;99516.22;7685600;32;36865;-84
2023/09/12 11:42:10;;;;;;;15.02;4.10;;;;;;;34.07;19.85;99504.28;7683982;32;39337;-81
2023/09/12 11:46:27;;;;;;;9.25;3.92;;;;;;;33.22;20.45;99495.16;7684880;32;40812;-82
2023/09/12 11:50:49;;;;;;;8.60;3.67;;;;;;;33.56;20.08;99501.72;7684581;32;37781;-81
2023/09/12 11:55:05;;;;;;;10.38;3.80;;;;;;;33.78;19.78;99487.97;7685760;32;36962;-82
2023/09/12 11:59:23;;;;;;;15.27;3.83;;;;;;;34.08;19.33;99488.88;7685465;32;39342;-82
2023/09/12 12:03:39;;;;;;;13.25;4.22;;;;;;;34.30;18.87;99490.00;7685527;32;39589;-83
2023/09/12 12:07:56;;;;;;;8.40;4.03;;;;;;;34.44;19.83;99488.84;7685278;32;38666;-82
2023/09/12 12:12:32;;;;;;;8.73;3.67;;;;;;;34.70;20.54;99489.78;7685035;32;37634;-84
2023/09/12 12:16:48;;;;;;;10.60;3.95;;;;;;;34.60;19.33;99480.34;7685235;32;39375;-83
2023/09/12 12:21:05;;;;;;;10.80;3.80;;;;;;;34.48;20.15;99483.09;7685318;32;40067;-83
2023/09/12 12:25:22;;;;;;;15.60;3.83;;;;;;;34.52;19.08;99481.75;7685344;32;37652;-84
2023/09/12 12:29:42;;;;;;;15.85;3.97;;;;;;;34.21;20.15;99478.50;7685282;32;37959;-82
2023/09/12 12:33:59;;;;;;;11.32;4.30;;;;;;;34.31;19.70;99471.78;7685156;32;40125;-80
2023/09/12 12:38:37;;;;;;;13.10;4.03;;;;;;;35.09;19.00;99468.13;7684813;32;40081;-79
2023/09/12 12:43:20;;;;;;;9.50;3.55;;;;;;;35.53;18.95;99459.19;7683189;32;38034;-80
2023/09/12 12:47:36;;;;;;;12.05;4.00;;;;;;;35.58;18.95;99469.19;7685106;32;37863;-82
2023/09/12 12:51:55;;;;;;;12.73;3.92;;;;;;;35.27;19.85;99464.81;7685092;32;39473;-81
2023/09/12 12:56:14;;;;;;;12.37;4.10;;;;;;;35.51;19.18;99456.00;7685051;32;40031;-83
2023/09/12 13:00:30;;;;;;;12.37;3.87;;;;;;;36.17;18.00;99447.06;7683662;32;36753;-81
2023/09/12 13:04:46;;;;;;;13.75;4.05;;;;;;;36.27;18.03;99454.47;7684663;32;38032;-81
2023/09/12 13:09:05;;;;;;;14.15;4.30;;;;;;;36.27;17.90;99448.78;7684937;32;39096;-82
2023/09/12 13:13:22;;;;;;;12.23;4.12;;;;;;;35.70;19.05;99454.22;7684730;32;40792;-82
2023/09/12 13:17:40;;;;;;;20.73;4.97;;;;;;;35.75;19.35;99453.69;7683378;32;38681;-81
2023/09/12 13:21:56;;;;;;;16.00;4.35;;;;;;;36.14;18.40;99450.84;7683467;32;37680;-82
2023/09/12 13:26:12;;;;;;;9.43;3.92;;;;;;;36.35;17.73;99455.81;7684791;32;39503;-82
2023/09/12 13:30:29;;;;;;;14.18;4.37;;;;;;;35.78;17.65;99452.00;7684591;32;39686;-82
2023/09/12 13:34:45;;;;;;;16.08;4.20;;;;;;;35.59;18.58;99450.94;7684323;32;37647;-82
2023/09/12 13:39:02;;;;;;;18.05;3.90;;;;;;;36.65;17.24;99440.19;7684458;32;37430;-81
2023/09/12 13:43:19;;;;;;;15.90;4.47;;;;;;;36.35;17.85;99440.84;7684450;32;40231;-82
2023/09/12 13:47:36;;;;;;;14.90;4.47;;;;;;;36.67;17.45;99442.56;7684269;32;40039;-85
2023/09/12 13:51:52;;;;;;;20.88;4.45;;;;;;;36.83;16.76;99433.09;7684862;32;37989;-83
2023/09/12 13:56:08;;;;;;;11.80;4.32;;;;;;;37.09;16.51;99438.66;7708097;32;37671;-82
2023/09/12 14:00:25;;;;;;;14.77;4.18;;;;;;;37.17;16.40;99434.28;7709980;32;39316;-83
2023/09/12 14:04:51;;;;;;;20.98;4.60;;;;;;;37.36;16.27;99427.50;7709752;32;39606;-83
2023/09/12 14:09:21;;;;;;;11.88;4.10;;;;;;;37.00;16.86;99431.66;7709940;32;37586;-83
2023/09/12 14:13:42;;;;;;;17.70;4.68;;;;;;;37.26;17.22;99425.84;7709650;32;37091;-83
2023/09/12 14:17:59;;;;;;;12.52;4.25;;;;;;;37.47;16.32;99427.06;7709711;32;40091;-84
2023/09/12 14:22:18;;;;;;;21.70;4.25;;;;;;;37.30;16.11;99420.81;7709635;32;40780;-83
2023/09/12 14:26:36;;;;;;;16.12;4.72;;;;;;;37.28;16.47;99420.50;7709379;32;38082;-84
2023/09/12 14:30:53;;;;;;;17.25;3.83;;;;;;;37.38;16.55;99422.13;7708380;32;37099;-84
2023/09/12 14:35:10;;;;;;;14.55;3.95;;;;;;;37.51;16.12;99419.19;7709084;32;40218;-85
2023/09/12 14:39:27;;;;;;;11.75;3.95;;;;;;;36.98;16.44;99422.81;7709303;32;40796;-84
2023/09/12 14:43:43;;;;;;;17.65;4.68;;;;;;;36.92;16.88;99421.81;7708774;32;38576;-82
2023/09/12 14:48:00;;;;;;;11.65;4.40;;;;;;;36.56;17.44;99425.12;7709530;32;37928;-84
2023/09/12 14:52:16;;;;;;;17.08;4.45;;;;;;;36.38;17.64;99435.03;7708749;32;39348;-83
2023/09/12 14:56:42;;;;;;;14.20;4.10;;;;;;;36.24;17.67;99433.50;7708793;32;40590;-83
2023/09/12 15:00:58;;;;;;;14.87;4.25;;;;;;;36.20;17.58;99432.75;7708582;32;37877;-84
2023/09/12 15:05:17;;;;;;;11.43;3.95;;;;;;;36.16;18.20;99437.78;7709246;32;36325;-84
2023/09/12 15:09:33;;;;;;;13.68;3.70;;;;;;;36.17;18.21;99433.72;7712453;32;40111;-84
2023/09/12 15:13:49;;;;;;;16.58;4.03;;;;;;;36.07;17.33;99434.84;7711947;32;40787;-84
2023/09/12 15:18:06;;;;;;;16.70;3.97;;;;;;;35.94;17.83;99436.91;7710894;32;38695;-84
2023/09/12 15:22:23;;;;;;;18.00;4.72;;;;;;;35.38;18.37;99439.00;7712179;32;36959;-84
2023/09/12 15:26:39;;;;;;;14.27;3.83;;;;;;;35.24;18.82;99425.25;7712022;32;38984;-85
2023/09/12 15:30:56;;;;;;;12.43;3.97;;;;;;;35.39;19.04;99432.06;7712266;32;40080;-83
2023/09/12 15:35:13;;;;;;;24.60;9.60;;;;;;;35.29;18.65;99431.16;7711849;32;37977;-84
2023/09/12 15:39:29;;;;;;;30.48;10.82;;;;;;;35.23;18.28;99432.16;7711555;32;36825;-86
2023/09/12 15:43:45;;;;;;;14.02;6.25;;;;;;;35.21;18.50;99428.97;7711862;32;37378;-86
2023/09/12 15:48:02;;;;;;;16.60;4.35;;;;;;;35.58;19.16;99433.12;7711609;32;39508;-87
2023/09/12 15:52:19;;;;;;;11.48;4.60;;;;;;;35.89;18.62;99424.88;7712385;32;38031;-86
2023/09/12 15:56:35;;;;;;;10.52;3.72;;;;;;;35.84;18.85;99422.63;7712260;32;37774;-86
2023/09/12 16:00:51;;;;;;;18.27;5.00;;;;;;;35.70;18.59;99423.84;7712064;32;39357;-85
2023/09/12 16:05:08;;;;;;;16.42;4.22;;;;;;;34.82;19.54;99416.72;7712221;32;40879;-86
2023/09/12 16:09:25;;;;;;;14.25;4.28;;;;;;;34.76;19.60;99428.59;7712065;32;38603;-86
2023/09/12 16:13:41;;;;;;;12.35;4.15;;;;;;;34.89;19.60;99419.34;7712124;32;37161;-87
2023/09/12 16:17:58;;;;;;;10.27;5.00;;;;;;;35.23;18.97;99424.44;7711992;32;39311;-88
2023/09/12 16:22:15;;;;;;;18.20;7.20;;;;;;;35.49;18.50;99422.44;7710982;32;41455;-88
2023/09/12 16:26:31;;;;;;;26.90;10.15;;;;;;;34.83;19.58;99423.97;7711824;32;38568;-87
2023/09/12 16:30:47;;;;;;;21.62;6.65;;;;;;;34.73;19.58;99423.03;7711828;32;38184;-85
2023/09/12 16:35:04;;;;;;;21.08;9.75;;;;;;;34.55;19.49;99420.66;7711966;32;39462;-86
2023/09/12 16:39:21;;;;;;;23.02;7.35;;;;;;;34.10;20.23;99424.19;7712027;32;40613;-87
2023/09/12 16:43:38;;;;;;;22.98;9.27;;;;;;;33.78;21.20;99428.59;7710678;32;38545;-85
2023/09/12 16:47:55;;;;;;;22.75;8.02;;;;;;;33.36;21.12;99431.94;7711763;32;37815;-86
2023/09/12 16:52:12;;;;;;;15.13;5.07;;;;;;;32.96;22.74;99433.94;7711757;32;39353;-85
2023/09/12 16:56:29;;;;;;;19.50;9.32;;;;;;;32.72;24.08;99431.19;7711805;32;40205;-86
2023/09/12 17:00:45;;;;;;;19.17;5.62;;;;;;;32.31;24.99;99432.28;7711478;32;37634;-79
2023/09/12 17:05:03;;;;;;;12.75;4.75;;;;;;;31.94;25.56;99439.69;7711670;32;37205;-84
2023/09/12 17:09:20;;;;;;;17.37;4.07;;;;;;;31.78;25.80;99438.28;7711456;32;40152;-86
2023/09/12 17:13:36;;;;;;;22.35;4.72;;;;;;;31.56;26.16;99431.38;7711508;32;40787;-87
2023/09/12 17:17:52;;;;;;;13.07;3.40;;;;;;;31.15;26.45;99432.28;7711162;32;38708;-87
2023/09/12 17:22:11;;;;;;;15.35;3.65;;;;;;;30.89;26.77;99435.38;7711491;32;37785;-87
2023/09/12 17:26:31;;;;;;;;;;;;;;;30.61;27.24;99435.66;7711743;32;40079;-87
2023/09/12 17:30:47;;;;;;;12.37;3.65;;;;;;;30.51;27.37;99440.16;7695020;32;41048;-84
2023/09/12 17:35:04;;;;;;;17.70;4.28;;;;;;;30.24;27.45;99446.41;7681737;32;38840;-84
2023/09/12 17:39:20;;;;;;;14.57;3.47;;;;;;;29.99;27.63;99452.22;7680059;32;37875;-84
2023/09/12 17:43:37;;;;;;;18.23;4.65;;;;;;;29.86;27.64;99437.87;7684371;32;39348;-85
2023/09/12 17:47:53;;;;;;;25.37;4.45;;;;;;;29.68;28.28;99448.38;7683905;32;40529;-82
2023/09/12 17:52:10;;;;;;;12.40;3.67;;;;;;;29.58;28.30;99448.03;7683329;32;38776;-85
2023/09/12 17:56:26;;;;;;;18.15;4.07;;;;;;;29.56;28.58;99453.28;7683530;32;37329;-85
2023/09/12 18:00:43;;;;;;;13.25;4.12;;;;;;;29.42;29.07;99458.16;7683742;32;39119;-85
2023/09/12 18:04:59;;;;;;;14.73;4.75;;;;;;;29.28;29.59;99464.62;7684082;32;40114;-84
2023/09/12 18:09:16;;;;;;;18.17;4.50;;;;;;;29.15;29.79;99470.66;7683283;32;38067;-88
2023/09/12 18:13:32;;;;;;;19.30;4.25;;;;;;;28.87;30.44;99470.72;7690068;32;37907;-90
2023/09/12 18:17:48;;;;;;;11.82;4.35;;;;;;;28.71;30.69;99480.38;7694377;32;40073;-87
2023/09/12 18:22:05;;;;;;;12.82;4.15;;;;;;;28.59;31.07;99480.78;7710354;32;39901;-88
2023/09/12 18:26:21;;;;;;;14.82;4.03;;;;;;;28.30;31.14;99483.56;7700001;32;37733;-88
2023/09/12 18:30:37;;;;;;;15.07;4.18;;;;;;;28.17;31.27;99494.38;7683563;32;37590;-89
2023/09/12 18:34:54;;;;;;;11.70;4.18;;;;;;;28.20;31.14;99493.59;7683499;32;39435;-89
2023/09/12 18:39:11;;;;;;;14.68;4.45;;;;;;;28.19;31.31;99499.59;7683478;32;40030;-89
2023/09/12 18:43:27;;;;;;;20.27;4.55;;;;;;;28.02;31.78;99501.94;7686478;32;37684;-87
2023/09/12 18:47:43;;;;;;;20.58;4.57;;;;;;;27.79;32.57;99501.47;7677191;32;37703;-88
2023/09/12 18:52:00;;;;;;;16.37;4.07;;;;;;;27.69;32.78;99497.44;7686048;32;39430;-86
2023/09/12 18:56:17;;;;;;;18.77;4.72;;;;;;;27.57;33.06;99498.59;7686238;32;40782;-89
2023/09/12 19:00:33;;;;;;;15.60;4.07;;;;;;;27.61;32.88;99507.00;7682777;32;37571;-86
2023/09/12 19:04:49;;;;;;;13.55;4.00;;;;;;;27.45;33.23;99512.94;7685080;32;37086;-87
2023/09/12 19:09:06;;;;;;;9.93;4.00;;;;;;;27.34;33.60;99516.50;7668801;32;39391;-86
2023/09/12 19:13:22;;;;;;;13.88;4.05;;;;;;;27.22;33.78;99514.00;7658615;32;40048;-87
2023/09/12 19:17:39;;;;;;;15.13;4.60;;;;;;;27.08;34.51;99513.91;7660575;32;38749;-86
2023/09/12 19:21:56;;;;;;;22.15;4.25;;;;;;;26.81;34.99;99516.16;7671279;32;37893;-86
2023/09/12 19:26:13;;;;;;;23.98;4.12;;;;;;;26.82;34.68;99518.56;7664228;32;40057;-86
2023/09/12 19:30:31;;;;;;;14.63;4.70;;;;;;;26.67;35.02;99522.44;7677009;32;39677;-86
2023/09/12 19:34:48;;;;;;;12.45;3.62;;;;;;;26.54;35.32;99513.50;7675312;32;37412;-87
2023/09/12 19:39:06;;;;;;;13.60;4.22;;;;;;;26.30;36.07;99517.69;7679736;32;37183;-86
2023/09/12 19:43:25;;;;;;;11.52;3.80;;;;;;;26.23;36.13;99505.28;7678960;32;39528;-86
2023/09/12 19:47:46;;;;;;;13.30;4.35;;;;;;;25.99;36.55;99500.22;7682300;32;40042;-86
2023/09/12 19:52:20;;;;;;;10.93;3.97;;;;;;;26.16;36.21;99505.19;7697250;32;38635;-87
2023/09/12 19:56:39;;;;;;;22.87;4.37;;;;;;;25.94;36.66;99514.50;7692354;32;37168;-88
2023/09/12 20:00:59;;;;;;;14.95;4.72;;;;;;;25.74;37.43;99505.53;7677412;32;247744;-88